Time;durP1;ratioP1;P1;durP2;ratioP2;P2;SDS_P1;SDS_P2;PMS_P1;PMS_P2;Temp;Humidity;BMP_temperature;BMP_pressure;BME280_temperature;BME280_humidity;BME280_pressure;Samples;Min_cycle;Max_cycle;Signal;HPM_P1;HPM_P2
2023/01/30 00:03:43;;;;;;;14.40;4.47;;;;;;;;;;6208239;23;20417;-95
2023/01/30 00:07:09;;;;;;;;;;;;;;;;;;;;;
2023/01/30 00:09:39;;;;;;;18.35;6.75;;;;;;;;;;6253808;23;20038;-96
2023/01/30 00:12:20;;;;;;;;;;;;;;;;;;6135057;23;20081;-96
2023/01/30 00:18:22;;;;;;;11.43;4.68;;;;;;;;;;6103101;23;20034;-96
2023/01/30 00:24:16;;;;;;;9.25;3.67;;;;;;;;;;6104200;23;20009;-96
2023/01/30 00:48:31;;;;;;;12.85;4.05;;;;;;;;;;6224533;23;20015;-94
2023/01/30 00:50:58;;;;;;;8.63;2.38;;;;;;;;;;6223173;23;20016;-94
2023/01/30 00:53:24;;;;;;;16.13;5.80;;;;;;;;;;6197793;23;20004;-95
2023/01/30 00:55:56;;;;;;;21.17;5.75;;;;;;;;;;6197815;23;20072;-95
2023/01/30 00:58:22;;;;;;;12.00;3.75;;;;;;;;;;6222611;23;20343;-94
2023/01/30 01:00:49;;;;;;;15.93;5.88;;;;;;;;;;6221223;23;20429;-95
2023/01/30 01:03:15;;;;;;;5.00;2.97;;;;;;;;;;6197052;23;20374;-94
2023/01/30 01:05:42;;;;;;;13.45;4.68;;;;;;;;;;6194968;23;20460;-94
2023/01/30 01:08:08;;;;;;;16.80;4.75;;;;;;;;;;6219415;23;20016;-94
2023/01/30 01:10:34;;;;;;;10.85;4.30;;;;;;;;;;6243571;23;20012;-94
2023/01/30 01:13:00;;;;;;;12.10;3.55;;;;;;;;;;6219788;23;20000;-94
2023/01/30 01:15:31;;;;;;;8.43;3.60;;;;;;;;;;6201800;22;20017;-94
2023/01/30 01:17:57;;;;;;;19.13;3.92;;;;;;;;;;6164264;23;20008;-95
2023/01/30 01:20:24;;;;;;;5.88;2.72;;;;;;;;;;6164818;23;20005;-95
2023/01/30 01:22:54;;;;;;;6.00;2.85;;;;;;;;;;6166039;23;20005;-94
2023/01/30 01:25:21;;;;;;;11.95;3.13;;;;;;;;;;6166309;23;20005;-94
2023/01/30 01:27:47;;;;;;;13.18;3.50;;;;;;;;;;6166624;23;20005;-94
2023/01/30 01:30:14;;;;;;;4.25;2.72;;;;;;;;;;6165083;23;20429;-94
2023/01/30 01:32:41;;;;;;;5.30;2.10;;;;;;;;;;6164973;23;20009;-94
2023/01/30 01:35:08;;;;;;;10.07;3.00;;;;;;;;;;6140125;23;20005;-94
2023/01/30 01:37:34;;;;;;;5.00;1.60;;;;;;;;;;6165443;23;20001;-94
2023/01/30 01:42:44;;;;;;;6.38;2.97;;;;;;;;;;6191940;23;20362;-94
2023/01/30 01:45:11;;;;;;;13.18;4.93;;;;;;;;;;6142163;23;20048;-94
2023/01/30 01:47:39;;;;;;;3.15;2.08;;;;;;;;;;6166710;23;20099;-94
2023/01/30 01:50:06;;;;;;;14.05;2.58;;;;;;;;;;6165946;23;20013;-95
2023/01/30 01:52:32;;;;;;;5.05;2.17;;;;;;;;;;6164365;23;20009;-94
2023/01/30 01:55:00;;;;;;;12.70;3.17;;;;;;;;;;6141374;23;20452;-93
2023/01/30 01:57:30;;;;;;;6.60;2.60;;;;;;;;;;6165326;23;20071;-94
2023/01/30 02:00:01;;;;;;;4.25;2.55;;;;;;;;;;6165497;23;20032;-94
2023/01/30 02:02:27;;;;;;;4.50;1.83;;;;;;;;;;6165896;23;20032;-94
2023/01/30 02:05:05;;;;;;;13.93;3.88;;;;;;;;;;6141442;23;20375;-94
2023/01/30 02:07:43;;;;;;;11.93;3.67;;;;;;;;;;6165386;23;20009;-94
2023/01/30 02:10:11;;;;;;;9.70;3.60;;;;;;;;;;6165405;23;20012;-94
2023/01/30 02:12:43;;;;;;;13.95;3.63;;;;;;;;;;6165261;23;20009;-94
2023/01/30 02:15:12;;;;;;;11.00;3.30;;;;;;;;;;6169263;23;20512;-94
2023/01/30 02:17:38;;;;;;;7.38;3.13;;;;;;;;;;6197084;23;20013;-94
2023/01/30 02:20:13;;;;;;;23.42;4.22;;;;;;;;;;6196543;23;20000;-94
2023/01/30 02:22:45;;;;;;;15.35;4.30;;;;;;;;;;6219343;23;20004;-94
2023/01/30 02:25:30;;;;;;;17.05;5.38;;;;;;;;;;6218582;23;20040;-94
2023/01/30 02:28:25;;;;;;;24.25;4.63;;;;;;;;;;6219686;23;20005;-94
2023/01/30 02:31:03;;;;;;;14.55;3.80;;;;;;;;;;6115389;23;20093;-94
2023/01/30 02:33:48;;;;;;;25.17;6.10;;;;;;;;;;6218864;23;20005;-93
2023/01/30 02:36:27;;;;;;;24.23;4.25;;;;;;;;;;6218429;23;20070;-94
2023/01/30 02:39:02;;;;;;;31.70;5.18;;;;;;;;;;6196327;23;20015;-94
2023/01/30 02:41:37;;;;;;;21.90;5.00;;;;;;;;;;6218898;23;20060;-95
2023/01/30 02:44:12;;;;;;;13.50;3.95;;;;;;;;;;6218429;23;20023;-94
2023/01/30 02:46:58;;;;;;;13.95;3.33;;;;;;;;;;6219326;23;20082;-94
2023/01/30 02:49:30;;;;;;;14.57;3.22;;;;;;;;;;6219712;23;20005;-95
2023/01/30 02:51:57;;;;;;;24.15;2.88;;;;;;;;;;6218899;23;20477;-94
2023/01/30 02:54:26;;;;;;;21.00;3.47;;;;;;;;;;6193826;23;20383;-94
2023/01/30 02:56:53;;;;;;;23.95;4.40;;;;;;;;;;6194053;23;20009;-94
2023/01/30 02:59:29;;;;;;;19.13;5.28;;;;;;;;;;6219558;23;20035;-94
2023/01/30 03:01:55;;;;;;;16.60;4.10;;;;;;;;;;6219476;23;20009;-94
2023/01/30 03:04:30;;;;;;;16.63;3.78;;;;;;;;;;6220439;23;20016;-95
2023/01/30 03:07:02;;;;;;;35.78;4.78;;;;;;;;;;6220340;23;20329;-95
2023/01/30 03:09:34;;;;;;;42.08;4.22;;;;;;;;;;6220417;23;20058;-93
2023/01/30 03:12:12;;;;;;;20.77;4.10;;;;;;;;;;6220701;23;20011;-94
2023/01/30 03:14:48;;;;;;;18.88;3.08;;;;;;;;;;6222113;22;20078;-94
2023/01/30 03:17:20;;;;;;;21.55;3.83;;;;;;;;;;6220408;23;20445;-94
2023/01/30 03:19:46;;;;;;;13.32;3.63;;;;;;;;;;6196299;23;20009;-94
2023/01/30 03:22:13;;;;;;;28.42;3.75;;;;;;;;;;6220637;23;20005;-94
2023/01/30 03:24:42;;;;;;;12.18;3.38;;;;;;;;;;6196229;23;20020;-94
2023/01/30 03:27:11;;;;;;;9.45;2.88;;;;;;;;;;6195590;23;20059;-94
2023/01/30 03:29:37;;;;;;;21.80;3.30;;;;;;;;;;6196023;23;20068;-94
2023/01/30 03:32:03;;;;;;;14.65;2.88;;;;;;;;;;6195333;23;20016;-93
2023/01/30 03:34:29;;;;;;;25.70;3.70;;;;;;;;;;6195448;23;20039;-94
2023/01/30 03:36:55;;;;;;;15.93;2.95;;;;;;;;;;6196796;23;20007;-94
2023/01/30 03:39:23;;;;;;;24.58;3.00;;;;;;;;;;6195268;23;20009;-94
2023/01/30 03:41:49;;;;;;;12.55;2.95;;;;;;;;;;6219255;23;20394;-93
2023/01/30 03:44:15;;;;;;;16.00;3.25;;;;;;;;;;6221089;23;20009;-94
2023/01/30 03:46:41;;;;;;;20.15;3.72;;;;;;;;;;6221057;23;20008;-94
2023/01/30 03:49:07;;;;;;;17.65;2.92;;;;;;;;;;6196413;23;20087;-94
2023/01/30 03:51:33;;;;;;;10.57;2.75;;;;;;;;;;6196228;23;20008;-94
2023/01/30 03:53:59;;;;;;;17.10;3.65;;;;;;;;;;6219804;23;20495;-95
2023/01/30 03:56:26;;;;;;;16.65;3.00;;;;;;;;;;6194789;23;20421;-94
2023/01/30 03:58:52;;;;;;;7.05;2.70;;;;;;;;;;6221624;23;20080;-95
2023/01/30 04:01:18;;;;;;;10.25;2.40;;;;;;;;;;6196547;23;20012;-95
2023/01/30 04:03:50;;;;;;;20.27;4.38;;;;;;;;;;6197545;23;20016;-94
2023/01/30 04:06:16;;;;;;;18.98;3.92;;;;;;;;;;6197689;23;20016;-94
2023/01/30 04:09:15;;;;;;;;;;;;;;;;;;;;;
2023/01/30 04:11:41;;;;;;;15.50;3.90;;;;;;;;;;6222472;23;20087;-94
2023/01/30 04:14:10;;;;;;;26.98;2.75;;;;;;;;;;6198178;22;20008;-94
2023/01/30 04:16:57;;;;;;;13.77;2.03;;;;;;;;;;6167861;23;20028;-94
2023/01/30 04:19:23;;;;;;;11.25;2.90;;;;;;;;;;6145739;23;20005;-94
2023/01/30 04:21:49;;;;;;;12.82;3.75;;;;;;;;;;6143615;23;20458;-94
2023/01/30 04:24:16;;;;;;;21.67;3.85;;;;;;;;;;6142127;23;20036;-96
2023/01/30 04:26:54;;;;;;;11.82;2.83;;;;;;;;;;6142078;23;20329;-95
2023/01/30 04:29:20;;;;;;;14.52;2.70;;;;;;;;;;6143687;23;20080;-95
2023/01/30 04:31:48;;;;;;;19.27;3.53;;;;;;;;;;6141669;23;20346;-95
2023/01/30 04:34:20;;;;;;;17.80;3.58;;;;;;;;;;6167305;23;20008;-95
2023/01/30 04:36:49;;;;;;;10.10;2.53;;;;;;;;;;6167057;23;20001;-95
2023/01/30 04:39:15;;;;;;;14.85;2.75;;;;;;;;;;6167177;23;20032;-96
2023/01/30 04:41:43;;;;;;;20.67;2.85;;;;;;;;;;6141728;23;20033;-96
2023/01/30 04:44:10;;;;;;;26.85;2.88;;;;;;;;;;6167488;23;20035;-95
2023/01/30 04:46:36;;;;;;;17.95;3.45;;;;;;;;;;6166855;23;20087;-95
2023/01/30 04:49:03;;;;;;;13.25;2.95;;;;;;;;;;6142816;23;20013;-96
2023/01/30 04:51:29;;;;;;;6.53;2.08;;;;;;;;;;6167227;23;20072;-95
2023/01/30 04:53:59;;;;;;;34.00;3.55;;;;;;;;;;6142526;23;20009;-95
2023/01/30 04:56:28;;;;;;;46.45;5.03;;;;;;;;;;6143178;23;20012;-95
2023/01/30 04:58:56;;;;;;;24.58;3.75;;;;;;;;;;6166815;23;20008;-95
2023/01/30 05:01:30;;;;;;;23.80;3.50;;;;;;;;;;6142653;23;20020;-96
2023/01/30 05:03:57;;;;;;;25.65;3.88;;;;;;;;;;6166475;23;20009;-96
2023/01/30 05:06:23;;;;;;;22.20;3.92;;;;;;;;;;6166205;23;20099;-95
2023/01/30 05:08:50;;;;;;;16.83;3.10;;;;;;;;;;6166597;23;20442;-95
2023/01/30 05:11:16;;;;;;;26.42;3.47;;;;;;;;;;6166544;23;20012;-95
2023/01/30 05:13:45;;;;;;;20.50;4.20;;;;;;;;;;6141574;23;20008;-95
2023/01/30 05:16:12;;;;;;;28.85;3.50;;;;;;;;;;6186449;23;20020;-95
2023/01/30 05:18:38;;;;;;;27.52;3.00;;;;;;;;;;6221958;23;20005;-95
2023/01/30 05:21:17;;;;;;;23.20;3.58;;;;;;;;;;6221377;23;20016;-95
2023/01/30 05:23:46;;;;;;;20.90;3.13;;;;;;;;;;6217489;23;20008;-96
2023/01/30 05:26:13;;;;;;;18.17;2.38;;;;;;;;;;6197045;23;20012;-95
2023/01/30 05:28:45;;;;;;;15.70;2.25;;;;;;;;;;6221804;23;20005;-95
2023/01/30 05:31:13;;;;;;;36.08;3.97;;;;;;;;;;6196968;23;20068;-96
2023/01/30 05:33:48;;;;;;;13.73;3.78;;;;;;;;;;6220231;23;20083;-95
2023/01/30 05:36:20;;;;;;;17.60;3.35;;;;;;;;;;6221434;23;20417;-96
2023/01/30 05:39:06;;;;;;;49.63;4.30;;;;;;;;;;6221052;23;20007;-95
2023/01/30 05:41:32;;;;;;;16.98;3.63;;;;;;;;;;6221543;23;20005;-95
2023/01/30 05:44:01;;;;;;;41.85;3.60;;;;;;;;;;6195649;23;20076;-95
2023/01/30 05:46:39;;;;;;;15.80;2.65;;;;;;;;;;6220644;23;20012;-96
2023/01/30 05:49:08;;;;;;;24.27;3.63;;;;;;;;;;6220430;23;20009;-95
2023/01/30 05:51:37;;;;;;;17.52;2.90;;;;;;;;;;6195677;23;20142;-95
2023/01/30 05:54:03;;;;;;;16.13;2.85;;;;;;;;;;6220344;23;20007;-95
2023/01/30 05:56:32;;;;;;;30.40;3.22;;;;;;;;;;6196509;23;20039;-94
2023/01/30 05:58:59;;;;;;;14.32;2.90;;;;;;;;;;6196692;23;20004;-96
2023/01/30 06:01:28;;;;;;;16.80;2.97;;;;;;;;;;6221477;23;20087;-95
2023/01/30 06:03:55;;;;;;;30.52;3.28;;;;;;;;;;6222286;23;20087;-94
2023/01/30 06:06:21;;;;;;;33.78;4.68;;;;;;;;;;6222580;23;20005;-94
2023/01/30 06:08:48;;;;;;;26.70;3.60;;;;;;;;;;6222571;23;20031;-94
2023/01/30 06:11:15;;;;;;;13.20;3.58;;;;;;;;;;6221829;23;20004;-94
2023/01/30 06:13:48;;;;;;;25.40;3.05;;;;;;;;;;6196581;23;20432;-94
2023/01/30 06:16:31;;;;;;;33.53;4.60;;;;;;;;;;6216229;22;20016;-96
2023/01/30 06:19:10;;;;;;;30.88;4.40;;;;;;;;;;6200342;23;20315;-96
2023/01/30 06:21:46;;;;;;;12.65;2.92;;;;;;;;;;6221666;23;20060;-95
2023/01/30 06:24:12;;;;;;;13.65;2.50;;;;;;;;;;6221061;23;20011;-94
2023/01/30 06:26:38;;;;;;;25.85;2.78;;;;;;;;;;6222270;23;20009;-94
2023/01/30 06:29:07;;;;;;;33.97;4.47;;;;;;;;;;6196855;23;20013;-95
2023/01/30 06:31:35;;;;;;;23.90;3.00;;;;;;;;;;6197755;23;20012;-95
2023/01/30 06:34:04;;;;;;;10.10;2.28;;;;;;;;;;6222377;23;20005;-96
2023/01/30 06:36:43;;;;;;;;;;;;;;;;;;;;;
2023/01/30 06:39:16;;;;;;;23.73;3.80;;;;;;;;;;6222690;23;20076;-95
2023/01/30 06:41:45;;;;;;;22.88;3.58;;;;;;;;;;6220985;23;20009;-94
2023/01/30 06:44:17;;;;;;;21.70;3.22;;;;;;;;;;6199246;23;20020;-95
2023/01/30 06:46:47;;;;;;;42.47;4.55;;;;;;;;;;6225407;23;20009;-95
2023/01/30 06:49:13;;;;;;;14.23;1.75;;;;;;;;;;6204239;23;19993;-95
2023/01/30 06:51:39;;;;;;;28.00;3.30;;;;;;;;;;6199938;23;20008;-94
2023/01/30 06:57:07;;;;;;;30.05;4.05;;;;;;;;;;6158935;23;20008;-95
2023/01/30 06:59:33;;;;;;;27.50;3.45;;;;;;;;;;6224384;23;20001;-95
2023/01/30 07:01:59;;;;;;;25.17;3.97;;;;;;;;;;6198861;23;20012;-95
2023/01/30 07:04:40;;;;;;;27.60;4.50;;;;;;;;;;6223504;23;20004;-94
2023/01/30 07:07:12;;;;;;;36.03;4.00;;;;;;;;;;6223879;23;20080;-95
2023/01/30 07:09:44;;;;;;;29.00;3.28;;;;;;;;;;6225994;23;20059;-94
2023/01/30 07:12:13;;;;;;;18.13;3.47;;;;;;;;;;6224806;23;20087;-94
2023/01/30 07:14:39;;;;;;;22.95;3.17;;;;;;;;;;6199890;22;20009;-95
2023/01/30 07:17:08;;;;;;;17.40;2.88;;;;;;;;;;6144094;23;20501;-95
2023/01/30 07:19:37;;;;;;;14.32;2.78;;;;;;;;;;6143492;23;20012;-95
2023/01/30 07:22:04;;;;;;;24.02;3.50;;;;;;;;;;6144703;23;20314;-95
2023/01/30 07:24:30;;;;;;;18.58;2.60;;;;;;;;;;6144337;23;20021;-95
2023/01/30 07:27:16;;;;;;;27.95;4.47;;;;;;;;;;6170105;23;20009;-95
2023/01/30 07:29:45;;;;;;;28.67;3.53;;;;;;;;;;6169249;23;20009;-95
2023/01/30 07:32:18;;;;;;;25.30;3.70;;;;;;;;;;6144780;23;20028;-96
2023/01/30 07:34:50;;;;;;;33.80;4.85;;;;;;;;;;6171904;23;20007;-96
2023/01/30 07:37:16;;;;;;;16.90;2.97;;;;;;;;;;6171300;23;20008;-95
2023/01/30 07:39:46;;;;;;;26.60;5.03;;;;;;;;;;6168589;23;20084;-95
2023/01/30 07:42:13;;;;;;;25.33;4.55;;;;;;;;;;6146640;23;20069;-95
2023/01/30 07:45:08;;;;;;;23.88;3.53;;;;;;;;;;6144600;23;19993;-95
2023/01/30 07:47:34;;;;;;;22.70;4.22;;;;;;;;;;6164690;23;20009;-95
2023/01/30 07:50:10;;;;;;;20.48;2.20;;;;;;;;;;6145491;23;20013;-95
2023/01/30 07:52:53;;;;;;;18.73;3.63;;;;;;;;;;6144698;23;20044;-95
2023/01/30 08:01:35;;;;;;;16.15;2.88;;;;;;;;;;6155100;23;20013;-95
2023/01/30 08:04:07;;;;;;;17.60;2.95;;;;;;;;;;6144505;23;20009;-94
2023/01/30 08:06:47;;;;;;;20.85;4.05;;;;;;;;;;6167735;23;20449;-95
2023/01/30 08:09:28;;;;;;;9.10;2.38;;;;;;;;;;6142990;23;20009;-94
2023/01/30 08:11:54;;;;;;;26.50;4.95;;;;;;;;;;6168220;23;20001;-94
2023/01/30 08:14:20;;;;;;;20.88;3.58;;;;;;;;;;6143127;23;20016;-94
2023/01/30 08:16:51;;;;;;;21.35;3.72;;;;;;;;;;6195693;23;20036;-94
2023/01/30 08:19:17;;;;;;;20.27;2.80;;;;;;;;;;6205390;23;20005;-94
2023/01/30 08:21:43;;;;;;;27.20;3.47;;;;;;;;;;6255676;23;20035;-95
2023/01/30 08:24:18;;;;;;;11.25;3.15;;;;;;;;;;6231467;23;20064;-94
2023/01/30 08:26:53;;;;;;;20.40;3.65;;;;;;;;;;6206076;23;20012;-93
2023/01/30 08:29:35;;;;;;;25.30;4.78;;;;;;;;;;6228715;23;20009;-94
2023/01/30 08:32:05;;;;;;;10.90;3.05;;;;;;;;;;6227334;23;20009;-95
2023/01/30 08:34:50;;;;;;;24.42;3.28;;;;;;;;;;6204680;23;20503;-94
2023/01/30 08:37:32;;;;;;;18.25;3.15;;;;;;;;;;6229034;23;20000;-94
2023/01/30 08:40:13;;;;;;;18.85;3.92;;;;;;;;;;6205934;23;20005;-94
2023/01/30 08:42:39;;;;;;;14.60;2.53;;;;;;;;;;6229347;23;20012;-94
2023/01/30 08:45:15;;;;;;;23.92;3.03;;;;;;;;;;6204308;23;20020;-95
2023/01/30 08:47:45;;;;;;;26.05;3.28;;;;;;;;;;6200787;23;20039;-94
2023/01/30 08:50:11;;;;;;;16.63;3.83;;;;;;;;;;6199069;23;20008;-94
2023/01/30 08:52:45;;;;;;;16.70;4.15;;;;;;;;;;6223514;23;20005;-93
2023/01/30 08:55:23;;;;;;;14.82;3.45;;;;;;;;;;6204113;23;20004;-94
2023/01/30 08:57:55;;;;;;;18.40;3.65;;;;;;;;;;6226890;23;20036;-94
2023/01/30 09:00:29;;;;;;;22.77;3.20;;;;;;;;;;6223650;23;20059;-95
2023/01/30 09:03:03;;;;;;;14.48;4.20;;;;;;;;;;6223060;23;20001;-94
2023/01/30 09:05:29;;;;;;;12.55;3.38;;;;;;;;;;6225258;23;20028;-94
2023/01/30 09:07:56;;;;;;;23.73;4.00;;;;;;;;;;6201981;23;20311;-94
2023/01/30 09:10:23;;;;;;;17.92;3.03;;;;;;;;;;6223968;23;20057;-95
2023/01/30 09:13:12;;;;;;;21.80;3.53;;;;;;;;;;6199468;23;20441;-95
2023/01/30 09:15:41;;;;;;;20.25;2.72;;;;;;;;;;6227939;22;20001;-94
2023/01/30 09:18:07;;;;;;;17.10;2.78;;;;;;;;;;6225266;23;20001;-95
2023/01/30 09:27:15;;;;;;;28.52;3.50;;;;;;;;;;6134044;23;20406;-94
2023/01/30 09:29:51;;;;;;;7.20;1.88;;;;;;;;;;6197308;23;20062;-95
2023/01/30 09:32:31;;;;;;;15.57;2.78;;;;;;;;;;6197916;23;20008;-96
2023/01/30 09:35:03;;;;;;;40.58;3.53;;;;;;;;;;6197982;23;20028;-95
2023/01/30 09:37:35;;;;;;;37.72;4.50;;;;;;;;;;6199091;23;20013;-94
2023/01/30 09:40:01;;;;;;;19.48;3.70;;;;;;;;;;6199573;23;20034;-94
2023/01/30 09:42:37;;;;;;;26.10;2.35;;;;;;;;;;6224514;23;20004;-94
2023/01/30 09:45:12;;;;;;;12.35;3.05;;;;;;;;;;6226017;23;20005;-95
2023/01/30 09:47:42;;;;;;;30.60;3.45;;;;;;;;;;6225028;23;20024;-95
2023/01/30 09:50:09;;;;;;;29.38;3.33;;;;;;;;;;6225030;23;20011;-95
2023/01/30 09:52:54;;;;;;;15.85;3.42;;;;;;;;;;6225683;23;20004;-94
2023/01/30 09:55:28;;;;;;;19.98;4.30;;;;;;;;;;6232703;23;20063;-95
2023/01/30 09:57:59;;;;;;;33.65;5.57;;;;;;;;;;6231559;23;20007;-94
2023/01/30 10:00:39;;;;;;;17.52;4.07;;;;;;;;;;6226529;23;20064;-95
2023/01/30 10:03:17;;;;;;;18.70;4.53;;;;;;;;;;6225597;23;20080;-95
2023/01/30 10:05:58;;;;;;;16.40;2.75;;;;;;;;;;6225576;23;20008;-95
2023/01/30 10:12:05;;;;;;;25.58;3.83;;;;;;;;;;6223159;23;20047;-95
2023/01/30 10:14:38;;;;;;;27.42;4.03;;;;;;;;;;6224760;23;20001;-96
2023/01/30 10:17:16;;;;;;;9.52;2.50;;;;;;;;;;6225878;22;20009;-96
2023/01/30 10:20:45;;;;;;;;;;;;;;;;;;;;;
2023/01/30 10:23:36;;;;;;;;;;;;;;;;;;;;;
2023/01/30 10:26:20;;;;;;;22.45;4.28;;;;;;;;;;6222665;23;20020;-94
2023/01/30 10:29:05;;;;;;;15.35;1.70;;;;;;;;;;6220697;23;20060;-95
2023/01/30 10:31:50;;;;;;;7.57;1.63;;;;;;;;;;6221711;23;20429;-94
2023/01/30 10:34:23;;;;;;;1.58;0.47;;;;;;;;;;6227729;23;20005;-95
2023/01/30 10:36:51;;;;;;;3.92;0.85;;;;;;;;;;6229544;23;20005;-96
2023/01/30 10:39:25;;;;;;;7.68;1.58;;;;;;;;;;6229141;23;20004;-96
2023/01/30 10:41:55;;;;;;;2.08;1.08;;;;;;;;;;6225012;23;20005;-96
2023/01/30 10:44:22;;;;;;;3.80;1.15;;;;;;;;;;6222434;23;20058;-95
2023/01/30 10:46:54;;;;;;;4.70;1.75;;;;;;;;;;6222442;23;20202;-96
2023/01/30 10:49:32;;;;;;;4.25;1.17;;;;;;;;;;6223244;23;20035;-96
2023/01/30 10:52:14;;;;;;;11.93;1.80;;;;;;;;;;6223280;23;20024;-96
2023/01/30 10:54:42;;;;;;;2.47;1.20;;;;;;;;;;6223606;23;20004;-96
2023/01/30 10:57:21;;;;;;;11.52;1.60;;;;;;;;;;6224779;23;20012;-94
2023/01/30 10:59:55;;;;;;;6.47;1.33;;;;;;;;;;6224385;23;20001;-96
2023/01/30 11:02:42;;;;;;;7.57;1.55;;;;;;;;;;6225830;23;20393;-96
2023/01/30 11:05:25;;;;;;;14.40;3.63;;;;;;;;;;6226255;23;20012;-96
2023/01/30 11:07:56;;;;;;;10.32;2.65;;;;;;;;;;6224971;23;20009;-96
2023/01/30 11:10:38;;;;;;;;;;;;;;;;;;;;;
2023/01/30 11:13:36;;;;;;;9.77;2.35;;;;;;;;;;6231036;23;20023;-96
2023/01/30 11:16:42;;;;;;;;;;;;;;;;;;;;;
2023/01/30 11:19:58;;;;;;;;;;;;;;;;;;;;;
2023/01/30 11:22:45;;;;;;;11.95;2.22;;;;;;;;;;6192371;23;20078;-96
2023/01/30 11:25:16;;;;;;;14.30;2.95;;;;;;;;;;6163572;23;20005;-96
2023/01/30 11:27:51;;;;;;;15.27;3.92;;;;;;;;;;6170183;23;20433;-96
2023/01/30 11:30:45;;;;;;;18.05;3.17;;;;;;;;;;6169430;23;20009;-96
2023/01/30 11:33:37;;;;;;;17.77;3.08;;;;;;;;;;6173087;23;20019;-96
2023/01/30 11:46:11;;;;;;;9.02;2.40;;;;;;;;;;6077688;23;20010;-96
2023/01/30 11:48:46;;;;;;;18.10;2.38;;;;;;;;;;6053033;23;20003;-96
2023/01/30 11:51:23;;;;;;;15.88;2.05;;;;;;;;;;6053832;23;20018;-96
2023/01/30 11:54:12;;;;;;;10.27;2.55;;;;;;;;;;6085169;23;20001;-96
2023/01/30 11:56:53;;;;;;;12.65;1.80;;;;;;;;;;6168346;23;20006;-96
2023/01/30 11:59:37;;;;;;;24.02;4.45;;;;;;;;;;6168135;23;20005;-96
2023/01/30 12:05:41;;;;;;;9.98;2.08;;;;;;;;;;6142052;23;20062;-96
2023/01/30 12:08:36;;;;;;;17.90;2.97;;;;;;;;;;6195640;23;20005;-96
2023/01/30 12:11:23;;;;;;;10.13;2.47;;;;;;;;;;6169066;23;20374;-96
2023/01/30 12:13:59;;;;;;;14.18;2.67;;;;;;;;;;6169308;23;20009;-96
2023/01/30 12:20:12;;;;;;;;;;;;;;;;;;;;;
2023/01/30 12:26:02;;;;;;;;;;;;;;;;;;;;;
2023/01/30 12:35:00;;;;;;;;;;;;;;;;;;;;;
2023/01/30 12:37:59;;;;;;;31.98;4.30;;;;;;;;;;6233834;23;20005;-96
2023/01/30 12:53:00;;;;;;;11.70;2.78;;;;;;;;;;6196754;23;20507;-96
2023/01/30 12:56:08;;;;;;;21.55;4.95;;;;;;;;;;6225573;23;20004;-96
2023/01/30 12:59:10;;;;;;;19.13;3.75;;;;;;;;;;6205697;23;20384;-95
2023/01/30 13:01:57;;;;;;;21.60;4.28;;;;;;;;;;6228441;23;20012;-96
2023/01/30 13:04:30;;;;;;;14.75;3.58;;;;;;;;;;6225268;23;20005;-96
2023/01/30 13:07:21;;;;;;;10.98;2.35;;;;;;;;;;6224177;23;20007;-96
2023/01/30 13:10:08;;;;;;;33.47;4.22;;;;;;;;;;6228638;23;20001;-96
2023/01/30 13:12:59;;;;;;;8.18;2.15;;;;;;;;;;6236513;23;20388;-96
2023/01/30 13:16:12;;;;;;;7.82;2.72;;;;;;;;;;6237146;22;20012;-96
2023/01/30 13:18:58;;;;;;;17.15;2.78;;;;;;;;;;6114500;23;20056;-96
2023/01/30 13:24:52;;;;;;;24.95;3.30;;;;;;;;;;6224216;23;20004;-96
2023/01/30 15:05:50;;;;;;;14.63;3.08;;;;;;;;;;6241260;22;20028;-92
2023/01/30 15:11:41;;;;;;;;;;;;;;;;;;;;;
2023/01/30 15:14:10;;;;;;;22.67;3.00;;;;;;;;;;6156174;23;20085;-93
2023/01/30 15:20:07;;;;;;;8.15;2.20;;;;;;;;;;6187631;23;20551;-94
2023/01/30 15:26:04;;;;;;;;;;;;;;;;;;;;;
2023/01/30 15:28:51;;;;;;;23.38;3.13;;;;;;;;;;6053255;23;20041;-94
2023/01/30 15:31:26;;;;;;;28.33;4.40;;;;;;;;;;6041829;23;20518;-94
2023/01/30 15:33:56;;;;;;;6.90;1.83;;;;;;;;;;6041773;23;20447;-93
2023/01/30 15:36:22;;;;;;;25.27;3.80;;;;;;;;;;6141228;23;20008;-93
2023/01/30 15:39:10;;;;;;;30.90;3.88;;;;;;;;;;6178725;23;20094;-93
2023/01/30 15:41:44;;;;;;;25.55;4.75;;;;;;;;;;6220083;23;20014;-93
2023/01/30 15:54:50;;;;;;;37.72;4.60;;;;;;;;;;6244129;22;20060;-93
2023/01/30 15:57:25;;;;;;;33.10;4.32;;;;;;;;;;6174725;23;20000;-92
2023/01/30 15:59:52;;;;;;;37.20;4.55;;;;;;;;;;6192458;23;20024;-92
2023/01/30 16:02:23;;;;;;;23.42;3.78;;;;;;;;;;6191421;23;20012;-92
2023/01/30 16:04:52;;;;;;;16.33;3.40;;;;;;;;;;6187520;23;20015;-92
2023/01/30 16:07:25;;;;;;;24.15;3.60;;;;;;;;;;6167160;23;20091;-92
2023/01/30 16:10:40;;;;;;;;;;;;;;;;;;;;;
2023/01/30 16:13:13;;;;;;;26.20;3.03;;;;;;;;;;6219249;23;20068;-93
2023/01/30 16:15:52;;;;;;;14.50;3.28;;;;;;;;;;6191275;23;20005;-93
2023/01/30 16:18:29;;;;;;;27.58;3.42;;;;;;;;;;6190063;23;20009;-93
2023/01/30 16:24:14;;;;;;;16.90;2.30;;;;;;;;;;6210056;23;20008;-92
2023/01/30 16:33:31;;;;;;;;;;;;;;;;;;;;;
2023/01/30 16:36:00;;;;;;;42.83;4.72;;;;;;;;;;6110794;23;20041;-93
2023/01/30 16:38:45;;;;;;;25.17;4.20;;;;;;;;;;6169166;23;20074;-93
2023/01/30 16:41:29;;;;;;;34.95;4.63;;;;;;;;;;6194698;23;20504;-93
2023/01/30 16:44:17;;;;;;;39.08;3.83;;;;;;;;;;6197895;23;20009;-92
2023/01/30 16:46:59;;;;;;;14.90;3.38;;;;;;;;;;6250394;23;20008;-92
2023/01/30 16:49:34;;;;;;;19.38;2.97;;;;;;;;;;6223479;23;20003;-92
2023/01/30 16:52:21;;;;;;;28.13;4.03;;;;;;;;;;6224295;23;20076;-93
2023/01/30 16:55:02;;;;;;;41.78;4.75;;;;;;;;;;6226251;22;20019;-93
2023/01/30 16:57:40;;;;;;;38.75;5.60;;;;;;;;;;6223180;23;20389;-92
2023/01/30 17:00:19;;;;;;;28.58;4.38;;;;;;;;;;6222902;23;20222;-93
2023/01/30 17:02:52;;;;;;;38.03;5.32;;;;;;;;;;6222004;23;20062;-92
2023/01/30 17:05:20;;;;;;;26.80;3.95;;;;;;;;;;6220954;23;20087;-93
2023/01/30 17:07:49;;;;;;;27.02;4.68;;;;;;;;;;6222056;23;20008;-93
2023/01/30 17:10:50;;;;;;;38.42;5.28;;;;;;;;;;6197818;23;20009;-93
2023/01/30 17:13:35;;;;;;;30.05;5.32;;;;;;;;;;6222399;23;20062;-92
2023/01/30 17:16:23;;;;;;;23.02;3.85;;;;;;;;;;6222568;23;20008;-92
2023/01/30 17:18:50;;;;;;;22.95;3.22;;;;;;;;;;6222023;23;20016;-93
2023/01/30 17:21:32;;;;;;;39.05;5.07;;;;;;;;;;6222216;23;20014;-93
2023/01/30 17:24:06;;;;;;;25.15;3.97;;;;;;;;;;6198719;23;20020;-93
2023/01/30 17:26:33;;;;;;;27.30;3.50;;;;;;;;;;6221713;23;20336;-92
2023/01/30 17:29:04;;;;;;;26.58;3.55;;;;;;;;;;6195319;23;20479;-93
2023/01/30 17:31:30;;;;;;;36.67;3.80;;;;;;;;;;6222248;23;20375;-93
2023/01/30 17:33:58;;;;;;;25.85;3.40;;;;;;;;;;6195572;23;20107;-92
2023/01/30 17:36:26;;;;;;;36.40;4.28;;;;;;;;;;6222135;23;20011;-94
2023/01/30 17:39:01;;;;;;;27.88;3.88;;;;;;;;;;6220892;23;20067;-93
2023/01/30 17:41:32;;;;;;;10.20;2.08;;;;;;;;;;6221341;23;20060;-93
2023/01/30 17:44:12;;;;;;;;;;;;;;;;;;;;;
2023/01/30 17:46:39;;;;;;;32.17;5.40;;;;;;;;;;6224646;23;20059;-93
2023/01/30 17:49:37;;;;;;;;;;;;;;;;;;;;;
2023/01/30 17:55:20;;;;;;;14.35;2.80;;;;;;;;;;6212821;22;20070;-93
2023/01/30 17:58:19;;;;;;;38.60;4.75;;;;;;;;;;6198079;23;20637;-93
2023/01/30 18:01:10;;;;;;;;;;;;;;;;;;;;;
2023/01/30 18:03:44;;;;;;;38.50;5.22;;;;;;;;;;6248016;23;20027;-92
2023/01/30 18:06:33;;;;;;;;;;;;;;;;;;;;;
2023/01/30 18:09:11;;;;;;;14.32;2.90;;;;;;;;;;6226347;23;20090;-94
2023/01/30 18:11:43;;;;;;;51.95;5.10;;;;;;;;;;6246321;23;20015;-93
2023/01/30 18:14:32;;;;;;;40.38;4.65;;;;;;;;;;6222876;23;20000;-93
2023/01/30 18:23:36;;;;;;;28.30;5.00;;;;;;;;;;6228619;23;20012;-93
2023/01/30 18:26:05;;;;;;;11.10;2.30;;;;;;;;;;6219123;23;20393;-93
2023/01/30 18:28:37;;;;;;;39.22;4.97;;;;;;;;;;6195784;23;20012;-95
2023/01/30 18:31:27;;;;;;;;;;;;;;;;;;;;;
2023/01/30 18:33:56;;;;;;;22.80;5.03;;;;;;;;;;6226204;23;20092;-93
2023/01/30 18:36:37;;;;;;;34.63;6.85;;;;;;;;;;6219260;23;20007;-93
2023/01/30 18:39:11;;;;;;;28.88;3.20;;;;;;;;;;6219244;23;20152;-93
2023/01/30 18:42:00;;;;;;;15.15;2.22;;;;;;;;;;6218255;23;20008;-93
2023/01/30 18:44:48;;;;;;;12.23;1.48;;;;;;;;;;6246130;23;20015;-94
2023/01/30 18:47:35;;;;;;;23.08;2.75;;;;;;;;;;6219696;23;20160;-93
2023/01/30 18:52:57;;;;;;;28.50;3.53;;;;;;;;;;6245569;23;20036;-93
2023/01/30 18:55:30;;;;;;;23.95;3.42;;;;;;;;;;6194438;22;20012;-93
2023/01/30 18:58:06;;;;;;;15.40;2.65;;;;;;;;;;6219562;22;20384;-93
2023/01/30 19:00:32;;;;;;;29.15;4.78;;;;;;;;;;6219377;23;20313;-93
2023/01/30 19:03:10;;;;;;;32.45;2.88;;;;;;;;;;6218844;23;20012;-93
2023/01/30 19:05:39;;;;;;;23.02;3.63;;;;;;;;;;6196510;23;20443;-93
2023/01/30 19:08:09;;;;;;;35.97;4.28;;;;;;;;;;6219889;23;20039;-93
2023/01/30 19:10:37;;;;;;;31.13;3.67;;;;;;;;;;6195121;23;20063;-92
2023/01/30 19:15:48;;;;;;;20.58;3.83;;;;;;;;;;6224466;23;20105;-92
2023/01/30 19:18:26;;;;;;;33.17;4.40;;;;;;;;;;6193434;23;20004;-92
2023/01/30 19:21:01;;;;;;;18.02;4.25;;;;;;;;;;6219384;23;20000;-92
2023/01/30 19:23:44;;;;;;;25.95;3.45;;;;;;;;;;6195154;23;20302;-92
2023/01/30 19:26:10;;;;;;;21.52;3.38;;;;;;;;;;6220000;23;20008;-92
2023/01/30 19:28:48;;;;;;;51.08;5.28;;;;;;;;;;6196024;23;20047;-92
2023/01/30 19:31:25;;;;;;;22.77;3.53;;;;;;;;;;6197760;23;20012;-92
2023/01/30 19:34:12;;;;;;;15.63;3.13;;;;;;;;;;6217628;23;20072;-92